createdAt,value
2022-11-01T00:02:06.757Z,10.94
2022-11-01T00:04:33.394Z,10.99
2022-11-01T00:07:02.265Z,11.02
2022-11-01T00:09:28.851Z,11.06
2022-11-01T00:11:55.432Z,11.08
2022-11-01T00:14:25.170Z,11.04
2022-11-01T00:16:51.733Z,10.91
2022-11-01T00:19:18.475Z,10.87
2022-11-01T00:21:47.236Z,10.89
2022-11-01T00:24:16.099Z,10.85
2022-11-01T00:26:42.815Z,10.71
2022-11-01T00:29:11.872Z,10.76
2022-11-01T00:31:40.951Z,10.77
2022-11-01T00:34:07.997Z,10.76
2022-11-01T00:36:38.061Z,10.71
2022-11-01T00:39:05.892Z,10.70
2022-11-01T00:41:32.463Z,10.70
2022-11-01T00:43:59.049Z,10.71
2022-11-01T00:46:28.242Z,10.69
2022-11-01T00:48:54.732Z,10.67
2022-11-01T00:51:21.258Z,10.66
2022-11-01T00:53:47.884Z,10.60
2022-11-01T00:56:22.044Z,10.63
2022-11-01T01:01:38.486Z,10.65
2022-11-01T01:04:22.593Z,10.66
2022-11-01T01:06:52.086Z,10.64
2022-11-01T01:09:18.644Z,10.63
2022-11-01T01:14:32.384Z,10.60
2022-11-01T01:16:59.527Z,10.57
2022-11-01T01:19:26.224Z,10.59
2022-11-01T01:21:55.111Z,10.61
2022-11-01T01:24:22.179Z,10.63
2022-11-01T01:26:53.581Z,10.61
2022-11-01T01:29:20.139Z,10.61
2022-11-01T01:31:49.678Z,10.63
2022-11-01T01:34:16.293Z,10.63
2022-11-01T01:36:43.121Z,10.66
2022-11-01T01:39:14.248Z,10.68
2022-11-01T01:41:58.208Z,10.71
2022-11-01T01:45:03.807Z,10.72
2022-11-01T01:47:33.978Z,10.75
2022-11-01T01:50:26.180Z,10.77
2022-11-01T01:53:23.780Z,10.79
2022-11-01T01:56:00.559Z,10.80
2022-11-01T01:58:52.187Z,10.81
2022-11-01T02:01:19.224Z,10.81
2022-11-01T02:03:47.082Z,10.83
2022-11-01T02:08:58.084Z,10.89
2022-11-01T02:11:24.612Z,10.92
2022-11-01T02:13:56.013Z,10.95
2022-11-01T02:16:31.459Z,10.98
2022-11-01T02:19:17.203Z,10.97
2022-11-01T02:21:58.770Z,10.99
2022-11-01T02:24:45.028Z,11.00
2022-11-01T02:27:27.745Z,11.02
2022-11-01T02:29:54.245Z,11.06
2022-11-01T02:32:35.351Z,11.06
2022-11-01T02:35:38.995Z,11.06
2022-11-01T02:38:36.767Z,11.05
2022-11-01T02:41:12.074Z,11.21
2022-11-01T02:43:57.436Z,11.14
2022-11-01T02:46:45.128Z,10.79
2022-11-01T02:49:15.785Z,10.87
2022-11-01T02:51:44.494Z,10.89
2022-11-01T02:54:27.753Z,10.90
2022-11-01T02:56:55.377Z,10.91
2022-11-01T02:59:28.271Z,10.88
2022-11-01T03:02:39.604Z,10.90
2022-11-01T03:05:06.729Z,11.01
2022-11-01T03:07:36.306Z,10.96
2022-11-01T03:10:05.588Z,10.80
2022-11-01T03:12:47.421Z,10.85
2022-11-01T03:15:33.295Z,10.83
2022-11-01T03:18:09.156Z,10.81
2022-11-01T03:20:48.963Z,10.77
2022-11-01T03:23:52.106Z,10.77
2022-11-01T03:26:25.972Z,10.80
2022-11-01T03:28:57.822Z,10.83
2022-11-01T03:31:32.615Z,10.87
2022-11-01T03:34:02.988Z,10.95
2022-11-01T03:36:38.533Z,10.95
2022-11-01T03:39:11.703Z,10.94
2022-11-01T03:41:46.591Z,10.95
2022-11-01T03:44:14.369Z,10.96
2022-11-01T03:46:41.814Z,10.99
2022-11-01T03:49:08.344Z,11.02
2022-11-01T03:51:34.985Z,11.07
2022-11-01T03:54:06.457Z,11.07
2022-11-01T03:56:33.036Z,11.06
2022-11-01T03:58:59.550Z,11.08
2022-11-01T04:01:28.637Z,11.07
2022-11-01T04:03:55.225Z,11.07
2022-11-01T04:06:24.286Z,11.01
2022-11-01T04:08:50.782Z,11.02
2022-11-01T04:11:17.283Z,11.03
2022-11-01T04:13:47.194Z,11.02
2022-11-01T04:16:35.056Z,11.08
2022-11-01T04:19:20.197Z,11.22
2022-11-01T04:21:46.838Z,11.19
2022-11-01T04:24:21.138Z,11.19
2022-11-01T04:26:50.439Z,11.22
2022-11-01T04:29:17.027Z,11.25
2022-11-01T04:31:45.861Z,11.24
2022-11-01T04:34:12.400Z,11.25
2022-11-01T04:36:41.422Z,11.23
2022-11-01T04:39:11.323Z,11.23
2022-11-01T04:41:40.289Z,11.23
2022-11-01T04:44:07.238Z,11.23
2022-11-01T04:46:36.225Z,11.24
2022-11-01T04:49:02.760Z,11.24
2022-11-01T04:51:29.687Z,11.26
2022-11-01T04:53:58.509Z,11.28
2022-11-01T04:56:25.074Z,11.38
2022-11-01T04:58:54.667Z,11.43
2022-11-01T05:01:23.881Z,11.51
2022-11-01T05:03:50.554Z,11.58
2022-11-01T05:06:19.676Z,11.65
2022-11-01T05:08:46.172Z,11.65
2022-11-01T05:11:15.231Z,11.72
2022-11-01T05:13:41.975Z,11.75
2022-11-01T05:16:19.714Z,11.75
2022-11-01T05:18:54.435Z,11.77
2022-11-01T05:21:25.793Z,11.80
2022-11-01T05:23:52.306Z,11.79
2022-11-01T05:26:21.213Z,11.82
2022-11-01T05:28:48.101Z,11.84
2022-11-01T05:31:14.660Z,11.88
2022-11-01T05:33:43.268Z,11.87
2022-11-01T05:36:09.873Z,11.83
2022-11-01T05:38:36.445Z,11.90
2022-11-01T05:41:03.727Z,11.90
2022-11-01T05:43:35.147Z,11.92
2022-11-01T05:46:06.446Z,11.90
2022-11-01T05:48:33.947Z,11.86
2022-11-01T05:51:03.205Z,11.85
2022-11-01T05:53:31.856Z,11.82
2022-11-01T05:55:58.563Z,11.80
2022-11-01T05:58:30.725Z,11.79
2022-11-01T06:01:05.978Z,11.80
2022-11-01T06:03:35.582Z,11.77
2022-11-01T06:06:02.484Z,11.79
2022-11-01T06:08:31.245Z,11.77
2022-11-01T06:11:05.555Z,11.77
2022-11-01T06:13:32.980Z,11.79
2022-11-01T06:16:09.412Z,11.82
2022-11-01T06:18:36.048Z,11.85
2022-11-01T06:21:02.561Z,11.86
2022-11-01T06:23:31.504Z,11.88
2022-11-01T06:26:05.315Z,11.88
2022-11-01T06:28:34.565Z,11.88
2022-11-01T06:33:35.968Z,11.91
2022-11-01T06:36:03.221Z,11.91
2022-11-01T06:38:30.039Z,11.89
2022-11-01T06:40:58.960Z,11.92
2022-11-01T06:43:27.798Z,11.93
2022-11-01T06:45:54.487Z,11.94
2022-11-01T06:48:21.158Z,11.96
2022-11-01T06:50:49.961Z,11.96
2022-11-01T06:53:18.758Z,11.97
2022-11-01T06:55:45.286Z,11.99
2022-11-01T06:58:14.056Z,11.97
2022-11-01T07:00:40.649Z,11.96
2022-11-01T07:03:12.365Z,11.98
2022-11-01T07:05:40.377Z,12.02
2022-11-01T07:08:09.078Z,12.03
2022-11-01T07:10:40.158Z,12.02
2022-11-01T07:13:11.994Z,12.05
2022-11-01T07:15:39.377Z,12.06
2022-11-01T07:18:08.369Z,12.08
2022-11-01T07:20:41.934Z,12.10
2022-11-01T07:23:17.620Z,12.10
2022-11-01T07:25:44.593Z,12.12
2022-11-01T07:28:11.558Z,12.13
2022-11-01T07:30:40.539Z,12.17
2022-11-01T07:33:09.746Z,12.20
2022-11-01T07:35:36.596Z,12.25
2022-11-01T07:38:06.446Z,12.30
2022-11-01T07:40:39.987Z,12.36
2022-11-01T07:43:08.910Z,12.38
2022-11-01T07:45:36.637Z,12.40
2022-11-01T07:48:06.368Z,12.44
2022-11-01T07:50:36.403Z,12.47
2022-11-01T07:53:07.470Z,12.48
2022-11-01T07:55:38.438Z,12.52
2022-11-01T07:58:08.369Z,12.56
2022-11-01T08:03:12.650Z,12.63
2022-11-01T08:05:39.915Z,12.70
2022-11-01T08:08:07.273Z,12.71
2022-11-01T08:10:35.287Z,12.73
2022-11-01T08:13:25.528Z,12.73
2022-11-01T08:15:53.286Z,12.80
2022-11-01T08:18:22.667Z,12.81
2022-11-01T08:20:51.812Z,12.82
2022-11-01T08:23:18.864Z,12.70
2022-11-01T08:25:48.518Z,12.75
2022-11-01T08:28:18.828Z,12.78
2022-11-01T08:30:49.560Z,12.83
2022-11-01T08:33:18.669Z,12.82
2022-11-01T08:35:50.061Z,12.81
2022-11-01T08:38:17.182Z,12.79
2022-11-01T08:40:43.766Z,12.84
2022-11-01T08:43:12.430Z,12.77
2022-11-01T08:45:39.043Z,12.86
2022-11-01T08:48:06.031Z,12.90
2022-11-01T08:50:34.294Z,12.94
2022-11-01T08:53:19.638Z,12.98
2022-11-01T08:55:49.714Z,13.05
2022-11-01T08:58:18.533Z,13.10
2022-11-01T09:00:45.066Z,13.12
2022-11-01T09:03:11.621Z,13.17
2022-11-01T09:05:40.830Z,13.22
2022-11-01T09:08:09.645Z,13.31
2022-11-01T09:10:38.447Z,13.33
2022-11-01T09:13:09.738Z,13.42
2022-11-01T09:15:36.290Z,13.43
2022-11-01T09:18:09.761Z,13.45
2022-11-01T09:20:36.316Z,13.43
2022-11-01T09:23:03.184Z,13.41
2022-11-01T09:25:32.297Z,13.46
2022-11-01T09:27:58.858Z,13.48
2022-11-01T09:30:26.688Z,13.48
2022-11-01T09:32:53.651Z,13.54
2022-11-01T09:35:22.625Z,13.64
2022-11-01T09:37:49.140Z,13.66
2022-11-01T09:40:19.061Z,13.72
2022-11-01T09:42:48.858Z,13.76
2022-11-01T09:45:26.595Z,13.81
2022-11-01T09:47:58.100Z,13.86
2022-11-01T09:50:36.964Z,14.00
2022-11-01T09:53:11.209Z,14.07
2022-11-01T09:55:46.223Z,14.22
2022-11-01T09:58:37.808Z,14.30
2022-11-01T10:01:29.737Z,14.33
2022-11-01T10:04:08.150Z,14.40
2022-11-01T10:06:42.495Z,14.30
2022-11-01T10:09:19.283Z,14.30
2022-11-01T10:11:57.681Z,14.20
2022-11-01T10:14:47.998Z,14.29
2022-11-01T10:17:17.572Z,14.25
2022-11-01T10:19:51.170Z,14.30
2022-11-01T10:22:19.814Z,14.36
2022-11-01T10:25:08.257Z,14.45
2022-11-01T10:27:53.105Z,14.50
2022-11-01T10:30:20.405Z,14.54
2022-11-01T10:32:49.810Z,14.53
2022-11-01T10:35:21.470Z,14.58
2022-11-01T10:38:19.407Z,14.63
2022-11-01T10:41:01.104Z,14.55
2022-11-01T10:43:30.096Z,14.57
2022-11-01T10:45:59.135Z,14.61
2022-11-01T10:48:34.684Z,14.63
2022-11-01T10:51:04.902Z,14.69
2022-11-01T10:53:47.850Z,14.76
2022-11-01T10:56:23.931Z,14.84
2022-11-01T10:59:03.667Z,14.85
2022-11-01T11:01:37.978Z,14.90
2022-11-01T11:04:07.820Z,14.93
2022-11-01T11:06:38.788Z,15.02
2022-11-01T11:09:05.924Z,14.97
2022-11-01T11:11:39.111Z,14.99
2022-11-01T11:14:10.726Z,14.99
2022-11-01T11:16:44.743Z,15.00
2022-11-01T11:19:12.090Z,15.01
2022-11-01T11:21:40.877Z,15.02
2022-11-01T11:24:20.743Z,15.12
2022-11-01T11:26:53.976Z,15.15
2022-11-01T11:29:58.322Z,15.27
2022-11-01T11:32:39.426Z,15.32
2022-11-01T11:35:18.480Z,15.38
2022-11-01T11:38:01.582Z,15.38
2022-11-01T11:40:42.227Z,15.37
2022-11-01T11:43:31.294Z,15.39
2022-11-01T11:46:12.687Z,15.44
2022-11-01T11:48:48.383Z,15.51
2022-11-01T11:51:20.285Z,15.74
2022-11-01T11:54:11.597Z,15.86
2022-11-01T11:56:38.307Z,15.72
2022-11-01T11:59:32.326Z,15.65
2022-11-01T12:02:09.787Z,15.65
2022-11-01T12:04:49.819Z,15.63
2022-11-01T12:07:37.870Z,15.66
2022-11-01T12:10:26.447Z,15.66
2022-11-01T12:12:54.151Z,15.84
2022-11-01T12:15:41.162Z,15.98
2022-11-01T12:18:18.584Z,16.30
2022-11-01T12:20:52.577Z,16.25
2022-11-01T12:23:27.529Z,16.37
2022-11-01T12:25:59.824Z,16.41
2022-11-01T12:28:51.911Z,16.18
2022-11-01T12:31:20.571Z,16.13
2022-11-01T12:34:17.647Z,16.03
2022-11-01T12:37:07.587Z,16.19
2022-11-01T12:39:46.303Z,16.21
2022-11-01T12:42:23.997Z,16.29
2022-11-01T12:44:57.207Z,16.37
2022-11-01T12:47:45.475Z,16.47
2022-11-01T12:50:21.078Z,16.43
2022-11-01T12:52:58.649Z,16.62
2022-11-01T12:55:36.086Z,16.35
2022-11-01T12:58:13.058Z,16.45
2022-11-01T13:00:50.173Z,16.47
2022-11-01T13:03:44.401Z,16.45
2022-11-01T13:06:35.667Z,16.25
2022-11-01T13:09:10.588Z,16.35
2022-11-01T13:11:52.355Z,16.44
2022-11-01T13:14:29.306Z,16.56
2022-11-01T13:17:09.827Z,16.43
2022-11-01T13:19:59.571Z,16.48
2022-11-01T13:22:39.234Z,16.62
2022-11-01T13:25:12.762Z,16.79
2022-11-01T13:27:56.708Z,17.01
2022-11-01T13:30:23.545Z,17.14
2022-11-01T13:32:59.398Z,17.14
2022-11-01T13:35:38.464Z,17.13
2022-11-01T13:38:11.047Z,17.27
2022-11-01T13:40:44.961Z,17.41
2022-11-01T13:43:17.863Z,17.39
2022-11-01T13:48:25.489Z,17.53
2022-11-01T13:51:09.914Z,17.39
2022-11-01T13:53:53.308Z,17.42
2022-11-01T13:56:34.247Z,17.18
2022-11-01T13:59:03.499Z,17.03
2022-11-01T14:01:41.940Z,16.91
2022-11-01T14:04:11.334Z,16.88
2022-11-01T14:06:42.748Z,16.72
2022-11-01T14:09:28.242Z,16.74
2022-11-01T14:12:11.570Z,16.66
2022-11-01T14:14:46.913Z,16.55
2022-11-01T14:17:16.241Z,16.32
2022-11-01T14:19:47.355Z,16.28
2022-11-01T14:22:24.263Z,16.18
2022-11-01T14:25:02.584Z,16.23
2022-11-01T14:27:29.479Z,16.14
2022-11-01T14:29:56.862Z,16.07
2022-11-01T14:32:27.754Z,16.12
2022-11-01T14:35:06.646Z,16.06
2022-11-01T14:37:39.764Z,16.11
2022-11-01T14:40:24.742Z,16.02
2022-11-01T14:42:56.093Z,16.01
2022-11-01T14:45:40.840Z,15.99
2022-11-01T14:48:39.232Z,15.96
2022-11-01T14:51:27.452Z,15.87
2022-11-01T14:54:02.712Z,15.83
2022-11-01T14:56:40.860Z,15.78
2022-11-01T14:59:12.833Z,15.73
2022-11-01T15:01:48.524Z,15.58
2022-11-01T15:04:27.498Z,15.53
2022-11-01T15:06:57.697Z,15.42
2022-11-01T15:09:33.355Z,15.43
2022-11-01T15:12:11.861Z,15.45
2022-11-01T15:14:46.598Z,15.44
2022-11-01T15:17:28.840Z,15.47
2022-11-01T15:19:59.250Z,15.48
2022-11-01T15:22:33.138Z,15.45
2022-11-01T15:25:02.138Z,15.44
2022-11-01T15:27:44.897Z,15.39
2022-11-01T15:30:32.345Z,15.33
2022-11-01T15:33:23.018Z,15.31
2022-11-01T15:36:06.566Z,15.15
2022-11-01T15:38:35.694Z,15.06
2022-11-01T15:41:22.006Z,14.82
2022-11-01T15:43:54.237Z,14.83
2022-11-01T15:46:27.021Z,14.70
2022-11-01T15:48:55.928Z,14.64
2022-11-01T15:51:25.701Z,14.54
2022-11-01T15:54:01.188Z,14.50
2022-11-01T15:56:41.157Z,14.51
2022-11-01T15:59:20.626Z,14.44
2022-11-01T16:01:48.966Z,14.44
2022-11-01T16:04:19.940Z,14.34
2022-11-01T16:07:07.106Z,14.23
2022-11-01T16:09:39.063Z,14.17
2022-11-01T16:12:17.381Z,14.10
2022-11-01T16:14:52.315Z,14.03
2022-11-01T16:17:29.926Z,14.02
2022-11-01T16:19:59.979Z,13.98
2022-11-01T16:22:32.677Z,13.99
2022-11-01T16:25:24.208Z,13.96
2022-11-01T16:28:00.087Z,13.93
2022-11-01T16:30:42.798Z,13.92
2022-11-01T16:33:25.147Z,13.97
2022-11-01T16:36:03.152Z,13.94
2022-11-01T16:38:32.858Z,14.05
2022-11-01T16:41:01.510Z,13.99
2022-11-01T16:43:33.532Z,13.95
2022-11-01T16:46:00.905Z,13.95
2022-11-01T16:48:32.155Z,13.95
2022-11-01T16:51:03.091Z,13.91
2022-11-01T16:53:36.994Z,13.91
2022-11-01T16:56:40.827Z,13.86
2022-11-01T16:59:06.794Z,13.89
2022-11-01T17:01:35.781Z,13.95
2022-11-01T17:04:04.112Z,13.89
2022-11-01T17:06:36.035Z,13.90
2022-11-01T17:09:11.756Z,13.82
2022-11-01T17:11:44.059Z,13.86
2022-11-01T17:14:13.118Z,13.82
2022-11-01T17:16:44.666Z,13.78
2022-11-01T17:19:25.303Z,13.72
2022-11-01T17:21:52.890Z,13.59
2022-11-01T17:24:22.911Z,13.47
2022-11-01T17:26:57.972Z,13.38
2022-11-01T17:29:24.607Z,13.35
2022-11-01T17:31:51.138Z,13.27
2022-11-01T17:34:17.697Z,13.30
2022-11-01T17:36:51.361Z,13.27
2022-11-01T17:39:17.922Z,13.25
2022-11-01T17:41:47.057Z,13.25
2022-11-01T17:44:13.993Z,13.25
2022-11-01T17:46:40.518Z,13.26
2022-11-01T17:49:09.867Z,13.27
2022-11-01T17:51:36.510Z,13.30
2022-11-01T17:54:05.328Z,13.28
2022-11-01T17:56:32.223Z,13.32
2022-11-01T17:58:58.819Z,13.23
2022-11-01T18:01:25.483Z,13.22
2022-11-01T18:03:55.473Z,13.24
2022-11-01T18:06:22.061Z,13.18
2022-11-01T18:08:51.374Z,13.12
2022-11-01T18:11:47.747Z,13.10
2022-11-01T18:14:37.573Z,13.00
2022-11-01T18:17:28.710Z,12.92
2022-11-01T18:20:14.029Z,12.88
2022-11-01T18:22:46.635Z,12.88
2022-11-01T18:25:28.863Z,12.92
2022-11-01T18:27:58.609Z,12.84
2022-11-01T18:30:25.910Z,12.76
2022-11-01T18:33:01.948Z,12.72
2022-11-01T18:35:34.601Z,12.74
2022-11-01T18:38:26.180Z,12.74
2022-11-01T18:41:02.891Z,12.72
2022-11-01T18:43:39.964Z,12.77
2022-11-01T18:46:26.792Z,12.83
2022-11-01T18:49:03.533Z,12.84
2022-11-01T18:51:34.389Z,12.78
2022-11-01T18:54:17.562Z,12.79
2022-11-01T18:56:49.467Z,12.77
2022-11-01T18:59:24.614Z,12.81
2022-11-01T19:02:13.890Z,12.80
2022-11-01T19:04:42.819Z,12.81
2022-11-01T19:07:19.038Z,12.79
2022-11-01T19:09:54.340Z,12.73
2022-11-01T19:12:27.068Z,12.71
2022-11-01T19:15:01.850Z,12.74
2022-11-01T19:17:35.645Z,12.76
2022-11-01T19:20:02.215Z,12.76
2022-11-01T19:22:40.585Z,12.82
2022-11-01T19:25:20.632Z,12.79
2022-11-01T19:27:51.973Z,12.83
2022-11-01T19:30:30.188Z,12.80
2022-11-01T19:33:03.423Z,12.81
2022-11-01T19:35:30.016Z,12.76
2022-11-01T19:37:59.004Z,12.76
2022-11-01T19:40:33.109Z,12.73
2022-11-01T19:43:12.213Z,12.50
2022-11-01T19:45:46.924Z,12.46
2022-11-01T19:48:16.466Z,12.42
2022-11-01T19:50:45.039Z,12.34
2022-11-01T19:53:33.877Z,12.44
2022-11-01T19:56:08.525Z,12.49
2022-11-01T19:58:43.912Z,12.53
2022-11-01T20:01:16.628Z,12.53
2022-11-01T20:03:46.766Z,12.46
2022-11-01T20:06:21.431Z,12.49
2022-11-01T20:08:54.455Z,12.46
2022-11-01T20:11:23.515Z,12.47
2022-11-01T20:13:52.981Z,12.40
2022-11-01T20:16:20.063Z,12.43
2022-11-01T20:18:46.985Z,12.36
2022-11-01T20:21:13.564Z,12.36
2022-11-01T20:23:42.396Z,12.35
2022-11-01T20:26:09.146Z,12.29
2022-11-01T20:28:38.218Z,12.26
2022-11-01T20:31:07.968Z,12.27
2022-11-01T20:33:34.729Z,12.18
2022-11-01T20:36:05.867Z,12.09
2022-11-01T20:38:38.612Z,12.07
2022-11-01T20:41:05.417Z,12.06
2022-11-01T20:43:32.121Z,12.05
2022-11-01T20:46:00.818Z,12.02
2022-11-01T20:48:29.805Z,11.90
2022-11-01T20:50:56.439Z,11.90
2022-11-01T20:53:28.609Z,11.84
2022-11-01T20:55:58.737Z,11.73
2022-11-01T20:58:26.365Z,11.65
2022-11-01T21:00:52.974Z,11.58
2022-11-01T21:03:22.864Z,11.45
2022-11-01T21:05:54.168Z,11.24
2022-11-01T21:08:25.091Z,11.11
2022-11-01T21:10:54.569Z,10.96
2022-11-01T21:13:39.131Z,11.14
2022-11-01T21:16:16.881Z,11.22
2022-11-01T21:18:47.478Z,11.21
2022-11-01T21:21:16.347Z,11.23
2022-11-01T21:23:44.611Z,11.25
2022-11-01T21:26:17.500Z,11.24
2022-11-01T21:28:47.927Z,11.21
2022-11-01T21:31:14.459Z,11.25
2022-11-01T21:33:49.209Z,11.38
2022-11-01T21:36:21.442Z,11.42
2022-11-01T21:38:52.025Z,11.39
2022-11-01T21:41:29.073Z,11.44
2022-11-01T21:43:59.195Z,11.35
2022-11-01T21:46:31.795Z,11.30
2022-11-01T21:49:00.127Z,11.32
2022-11-01T21:51:29.718Z,11.29
2022-11-01T21:54:00.095Z,11.28
2022-11-01T21:56:30.323Z,11.19
2022-11-01T21:58:57.229Z,11.11
2022-11-01T22:01:26.325Z,10.88
2022-11-01T22:03:52.951Z,10.92
2022-11-01T22:06:19.504Z,10.95
2022-11-01T22:08:48.286Z,11.00
2022-11-01T22:11:14.819Z,10.81
2022-11-01T22:13:41.369Z,10.77
2022-11-01T22:16:09.547Z,10.79
2022-11-01T22:18:38.530Z,10.76
2022-11-01T22:21:05.192Z,10.73
2022-11-01T22:23:34.197Z,10.73
2022-11-01T22:26:01.140Z,10.69
2022-11-01T22:28:35.542Z,10.66
2022-11-01T22:31:02.180Z,10.64
2022-11-01T22:33:28.948Z,10.67
2022-11-01T22:35:55.513Z,10.72
2022-11-01T22:38:23.239Z,10.73
2022-11-01T22:41:00.856Z,10.77
2022-11-01T22:43:29.657Z,10.69
2022-11-01T22:45:56.719Z,10.66
2022-11-01T22:48:23.959Z,10.51
2022-11-01T22:50:53.279Z,10.45
2022-11-01T22:53:24.339Z,10.44
2022-11-01T22:55:54.998Z,10.43
2022-11-01T22:58:38.331Z,10.45
2022-11-01T23:01:23.484Z,10.46
2022-11-01T23:03:54.383Z,10.51
2022-11-01T23:06:20.822Z,10.55
2022-11-01T23:08:48.020Z,10.49
2022-11-01T23:11:38.035Z,10.51
2022-11-01T23:14:37.446Z,10.41
2022-11-01T23:17:22.034Z,10.43
2022-11-01T23:19:59.082Z,10.48
2022-11-01T23:22:31.615Z,10.33
2022-11-01T23:24:58.181Z,10.42
2022-11-01T23:27:29.853Z,10.46
2022-11-01T23:30:03.108Z,10.48
2022-11-01T23:32:34.461Z,10.39
2022-11-01T23:35:13.910Z,10.51
2022-11-01T23:37:42.119Z,10.57
2022-11-01T23:40:21.015Z,10.62
2022-11-01T23:42:52.813Z,10.66
2022-11-01T23:45:32.370Z,10.65
2022-11-01T23:48:02.235Z,10.52
2022-11-01T23:50:35.493Z,10.57
2022-11-01T23:53:08.232Z,10.61
2022-11-01T23:56:04.506Z,10.64
2022-11-01T23:58:33.209Z,10.68
